createdAt,value
2018-11-29T00:01:35.201Z,59.55
2018-11-29T00:06:37.626Z,61.28
2018-11-29T00:11:40.279Z,67.85
2018-11-29T00:16:43.158Z,66.87
2018-11-29T00:21:45.585Z,58.50
2018-11-29T00:26:48.036Z,73.22
2018-11-29T00:31:50.581Z,70.87
2018-11-29T00:36:52.992Z,63.35
2018-11-29T00:41:55.523Z,69.67
2018-11-29T00:46:57.959Z,66.20
2018-11-29T00:52:00.386Z,72.62
2018-11-29T00:57:02.786Z,67.95
2018-11-29T01:02:05.539Z,72.53
2018-11-29T01:07:07.923Z,69.42
2018-11-29T01:12:10.561Z,69.60
2018-11-29T01:17:12.924Z,68.17
2018-11-29T01:22:15.374Z,73.40
2018-11-29T01:27:18.754Z,71.62
2018-11-29T01:32:21.268Z,67.65
2018-11-29T01:37:24.111Z,81.47
2018-11-29T01:42:26.578Z,69.32
2018-11-29T01:47:29.063Z,77.85
2018-11-29T01:52:31.515Z,82.40
2018-11-29T01:57:33.937Z,82.45
2018-11-29T02:02:36.462Z,76.07
2018-11-29T02:07:38.880Z,71.80
2018-11-29T02:12:41.445Z,74.12
2018-11-29T02:17:44.015Z,70.03
2018-11-29T02:22:46.802Z,69.60
2018-11-29T02:27:49.299Z,73.20
2018-11-29T02:32:51.970Z,75.37
2018-11-29T02:37:54.480Z,71.20
2018-11-29T02:48:41.415Z,70.97
2018-11-29T02:53:53.285Z,66.90
2018-11-29T02:58:55.729Z,71.95
2018-11-29T03:03:58.154Z,71.05
2018-11-29T03:14:13.475Z,68.47
2018-11-29T03:19:16.001Z,67.37
2018-11-29T03:24:18.456Z,63.98
2018-11-29T03:29:20.870Z,63.68
2018-11-29T03:34:23.623Z,69.87
2018-11-29T03:39:25.980Z,70.20
2018-11-29T03:44:28.423Z,56.28
2018-11-29T03:49:30.968Z,75.35
2018-11-29T03:54:34.074Z,66.07
2018-11-29T03:59:36.458Z,66.87
2018-11-29T04:04:38.926Z,72.65
2018-11-29T04:09:41.475Z,74.37
2018-11-29T04:14:43.816Z,70.12
2018-11-29T04:19:46.402Z,65.37
2018-11-29T04:24:48.742Z,69.32
2018-11-29T04:29:51.244Z,63.10
2018-11-29T04:34:54.027Z,61.37
2018-11-29T04:39:56.478Z,63.50
2018-11-29T04:44:58.988Z,55.73
2018-11-29T04:50:01.429Z,58.78
2018-11-29T04:55:04.147Z,65.83
2018-11-29T05:00:12.849Z,66.47
2018-11-29T05:05:15.258Z,67.65
2018-11-29T05:10:17.960Z,63.55
2018-11-29T05:15:20.341Z,60.52
2018-11-29T05:20:22.975Z,67.58
2018-11-29T05:25:25.423Z,67.62
2018-11-29T05:30:27.896Z,57.85
2018-11-29T05:35:30.275Z,71.20
2018-11-29T05:40:32.736Z,63.87
2018-11-29T05:45:35.231Z,64.20
2018-11-29T05:50:37.749Z,63.20
2018-11-29T05:55:40.156Z,66.72
2018-11-29T06:00:42.733Z,65.40
2018-11-29T06:10:56.870Z,66.55
2018-11-29T06:15:59.263Z,67.75
2018-11-29T06:21:01.758Z,65.70
2018-11-29T06:26:04.303Z,65.50
2018-11-29T06:31:06.994Z,70.03
2018-11-29T06:36:09.638Z,71.82
2018-11-29T06:41:12.229Z,65.40
2018-11-29T06:46:14.783Z,66.45
2018-11-29T06:51:17.226Z,70.75
2018-11-29T06:56:19.957Z,72.12
2018-11-29T07:01:22.909Z,61.68
2018-11-29T07:06:25.295Z,70.55
2018-11-29T07:11:28.010Z,60.63
2018-11-29T07:16:30.587Z,70.15
2018-11-29T07:21:54.512Z,68.50
2018-11-29T07:26:56.916Z,67.45
2018-11-29T07:31:59.435Z,74.67
2018-11-29T07:37:01.906Z,73.62
2018-11-29T07:42:04.620Z,72.53
2018-11-29T07:47:07.087Z,68.70
2018-11-29T07:52:09.457Z,65.37
2018-11-29T07:57:11.818Z,64.62
2018-11-29T08:02:14.296Z,70.20
2018-11-29T08:07:16.764Z,66.95
2018-11-29T08:12:34.670Z,64.07
2018-11-29T08:17:37.074Z,68.02
2018-11-29T08:22:59.449Z,66.35
2018-11-29T08:28:01.896Z,64.77
2018-11-29T08:38:31.966Z,66.95
2018-11-29T08:43:46.441Z,67.08
2018-11-29T08:48:48.809Z,67.40
2018-11-29T08:53:51.562Z,67.80
2018-11-29T08:58:53.960Z,68.83
2018-11-29T09:03:56.675Z,63.38
2018-11-29T09:08:59.100Z,70.60
2018-11-29T09:14:01.530Z,69.53
2018-11-29T09:19:03.974Z,71.42
2018-11-29T09:24:06.410Z,66.10
2018-11-29T09:29:09.221Z,61.95
2018-11-29T09:34:11.623Z,59.20
2018-11-29T09:39:14.232Z,62.83
2018-11-29T09:44:16.763Z,56.65
2018-11-29T09:49:19.288Z,66.87
2018-11-29T09:54:21.658Z,59.80
2018-11-29T09:59:24.373Z,64.82
2018-11-29T10:04:26.794Z,60.25
2018-11-29T10:09:29.260Z,63.10
2018-11-29T10:14:31.666Z,55.60
2018-11-29T10:19:34.068Z,59.25
2018-11-29T10:24:36.514Z,56.95
2018-11-29T10:29:38.986Z,55.43
2018-11-29T10:34:41.485Z,57.98
2018-11-29T10:39:43.849Z,53.15
2018-11-29T10:44:46.394Z,59.40
2018-11-29T10:49:49.102Z,60.58
2018-11-29T10:54:51.534Z,55.92
2018-11-29T10:59:54.026Z,53.02
2018-11-29T11:04:56.582Z,55.45
2018-11-29T11:09:59.001Z,58.08
2018-11-29T11:15:01.416Z,60.78
2018-11-29T11:20:04.381Z,51.65
2018-11-29T11:25:08.426Z,52.80
2018-11-29T11:30:12.395Z,53.05
2018-11-29T11:35:14.887Z,51.05
2018-11-29T11:40:17.336Z,54.80
2018-11-29T11:45:20.264Z,55.25
2018-11-29T11:50:23.638Z,52.67
2018-11-29T11:55:29.950Z,56.68
2018-11-29T12:00:29.573Z,55.63
2018-11-29T12:05:32.083Z,47.83
2018-11-29T12:10:34.683Z,53.85
2018-11-29T12:15:37.681Z,53.08
2018-11-29T12:20:40.085Z,53.85
2018-11-29T12:25:42.555Z,49.83
2018-11-29T12:30:46.671Z,52.80
2018-11-29T12:35:49.071Z,54.80
2018-11-29T12:40:51.533Z,53.28
2018-11-29T12:45:53.970Z,57.00
2018-11-29T12:50:56.523Z,47.80
2018-11-29T12:55:58.972Z,47.45
2018-11-29T13:01:01.416Z,50.03
2018-11-29T13:06:03.914Z,52.50
2018-11-29T13:11:10.687Z,47.13
2018-11-29T13:16:08.899Z,51.50
2018-11-29T13:21:11.450Z,47.90
2018-11-29T13:26:13.957Z,46.98
2018-11-29T13:31:16.481Z,46.40
2018-11-29T13:36:18.912Z,47.80
2018-11-29T13:41:21.428Z,47.33
2018-11-29T13:46:23.829Z,52.05
2018-11-29T13:51:26.284Z,47.48
2018-11-29T13:56:28.737Z,55.03
2018-11-29T14:01:31.195Z,52.45
2018-11-29T14:06:40.246Z,48.48
2018-11-29T14:11:42.886Z,45.20
2018-11-29T14:16:45.290Z,49.63
2018-11-29T14:21:51.260Z,48.65
2018-11-29T14:26:50.735Z,48.23
2018-11-29T14:31:53.209Z,48.33
2018-11-29T14:36:55.633Z,44.10
2018-11-29T14:41:58.045Z,47.95
2018-11-29T14:47:00.511Z,49.48
2018-11-29T14:52:03.011Z,49.35
2018-11-29T14:57:05.558Z,44.05
2018-11-29T15:02:07.933Z,42.25
2018-11-29T15:07:10.490Z,45.08
2018-11-29T15:12:12.933Z,44.50
2018-11-29T15:17:15.443Z,43.13
2018-11-29T15:22:17.868Z,45.48
2018-11-29T15:27:20.340Z,44.40
2018-11-29T15:32:22.954Z,47.73
2018-11-29T15:37:25.405Z,46.28
2018-11-29T15:42:27.874Z,52.48
2018-11-29T15:47:30.424Z,45.58
2018-11-29T15:52:32.802Z,39.95
2018-11-29T15:57:35.517Z,45.15
2018-11-29T16:02:38.147Z,43.15
2018-11-29T16:07:40.867Z,40.58
2018-11-29T16:12:43.357Z,40.80
2018-11-29T16:17:53.154Z,40.63
2018-11-29T16:22:55.886Z,41.65
2018-11-29T16:27:58.320Z,39.95
2018-11-29T16:33:03.361Z,43.63
2018-11-29T16:38:06.290Z,44.48
2018-11-29T16:43:08.687Z,44.55
2018-11-29T16:48:11.183Z,40.00
2018-11-29T16:53:13.696Z,40.98
2018-11-29T16:58:17.969Z,40.15
2018-11-29T17:03:20.470Z,38.70
2018-11-29T17:08:22.875Z,35.88
2018-11-29T17:13:25.573Z,39.40
2018-11-29T17:18:27.987Z,42.15
2018-11-29T17:23:30.971Z,38.00
2018-11-29T17:28:33.446Z,31.57
2018-11-29T17:33:35.922Z,35.17
2018-11-29T17:38:38.450Z,33.53
2018-11-29T17:43:40.952Z,33.98
2018-11-29T17:48:43.570Z,33.78
2018-11-29T17:53:46.149Z,33.40
2018-11-29T17:58:48.567Z,34.20
2018-11-29T18:03:51.091Z,32.28
2018-11-29T18:08:53.569Z,33.70
2018-11-29T18:13:56.101Z,36.23
2018-11-29T18:18:58.795Z,32.38
2018-11-29T18:24:01.272Z,32.05
2018-11-29T18:29:04.373Z,30.75
2018-11-29T18:34:06.789Z,29.23
2018-11-29T18:39:09.401Z,31.10
2018-11-29T18:44:11.869Z,37.25
2018-11-29T18:49:14.322Z,32.67
2018-11-29T18:54:16.875Z,28.10
2018-11-29T18:59:19.427Z,28.07
2018-11-29T19:04:21.893Z,30.35
2018-11-29T19:09:24.327Z,31.93
2018-11-29T19:14:26.798Z,29.52
2018-11-29T19:19:29.348Z,26.55
2018-11-29T19:24:31.962Z,31.60
2018-11-29T19:29:34.424Z,27.32
2018-11-29T19:34:36.904Z,30.55
2018-11-29T19:39:39.394Z,33.13
2018-11-29T19:44:41.934Z,35.55
2018-11-29T19:49:44.374Z,27.48
2018-11-29T19:54:46.791Z,33.40
2018-11-29T19:59:49.268Z,24.40
2018-11-29T20:04:52.291Z,29.65
2018-11-29T20:09:54.767Z,29.85
2018-11-29T20:14:57.650Z,26.40
2018-11-29T20:20:00.357Z,27.45
2018-11-29T20:25:02.868Z,28.67
2018-11-29T20:30:08.882Z,26.65
2018-11-29T20:35:12.281Z,28.07
2018-11-29T20:40:25.434Z,29.72
2018-11-29T20:45:29.389Z,32.25
2018-11-29T20:50:32.384Z,28.05
2018-11-29T20:55:36.316Z,30.65
2018-11-29T21:00:45.754Z,31.35
2018-11-29T21:05:54.420Z,26.95
2018-11-29T21:10:56.853Z,26.05
2018-11-29T21:15:59.641Z,28.15
2018-11-29T21:21:02.508Z,30.05
2018-11-29T21:26:05.343Z,29.77
2018-11-29T21:31:09.927Z,25.37
2018-11-29T21:41:43.159Z,34.13
2018-11-29T21:52:01.952Z,22.82
2018-11-29T21:57:04.816Z,27.50
2018-11-29T22:02:07.197Z,24.80
2018-11-29T22:07:09.738Z,28.07
2018-11-29T22:12:12.415Z,26.93
2018-11-29T22:17:14.837Z,32.08
2018-11-29T22:22:17.231Z,32.45
2018-11-29T22:27:19.653Z,25.30
2018-11-29T22:32:22.324Z,30.35
2018-11-29T22:37:24.707Z,33.18
2018-11-29T22:42:27.726Z,28.50
2018-11-29T22:47:30.231Z,25.55
2018-11-29T22:52:32.710Z,31.12
2018-11-29T22:57:35.171Z,32.48
2018-11-29T23:02:38.283Z,28.95
2018-11-29T23:07:40.814Z,26.95
2018-11-29T23:12:43.375Z,32.80
2018-11-29T23:17:45.780Z,34.25
2018-11-29T23:22:48.210Z,28.55
2018-11-29T23:27:50.943Z,30.92
2018-11-29T23:32:53.451Z,26.55
2018-11-29T23:37:55.923Z,32.88
2018-11-29T23:42:58.417Z,33.78
2018-11-29T23:48:00.938Z,28.75
2018-11-29T23:53:03.641Z,30.12
2018-11-29T23:58:06.166Z,31.52
